Moscow, Russia
Current Conditions -  °F | °C
As of 1:00 PM on Friday 24 Oct 2014 (Local Time) from UUWW Reporting Station
Few Clouds Few Clouds  
Wind Chill: -8°   Ceiling: Unl
Heat Index: -2°   Visibility: 6mi
Dew Point: -9°   Wind: 13mph
Humidity: 59%   Direction: 10°N
Pressure: 30.53"   Gusts: NA
Location:  55.75°N, 37.62°E
Report Text: UUWW 241000Z 01006MPS 9999 FEW026 M02/M09 Q1034 01190042 NOSIG
Loading
Personal Weather Stations






























Interactive Weather Map
Tropical Storm Tracking
New forecast layout! Learn more

10-Day Weather Forecast

Advertisements
Track Severe Weather on mobile